Time;durP1;ratioP1;P1;durP2;ratioP2;P2;SDS_P1;SDS_P2;PMS_P1;PMS_P2;Temp;Humidity;BMP_temperature;BMP_pressure;BME280_temperature;BME280_humidity;BME280_pressure;Samples;Min_cycle;Max_cycle;Signal;HPM_P1;HPM_P2
2022/06/16 00:00:28;;;;;;;5.88;4.32;;;13.70;99.90;;;;;;5018261;28;20042;-81
2022/06/16 00:02:53;;;;;;;9.45;4.85;;;13.70;99.90;;;;;;5035148;28;20120;-81
2022/06/16 00:05:22;;;;;;;7.93;4.53;;;13.70;99.90;;;;;;5034933;28;20099;-81
2022/06/16 00:07:48;;;;;;;7.45;4.38;;;13.70;99.90;;;;;;5034337;28;20120;-81
2022/06/16 00:10:15;;;;;;;5.38;4.00;;;13.60;99.90;;;;;;5033407;28;20518;-81
2022/06/16 00:12:41;;;;;;;6.70;4.50;;;13.60;99.90;;;;;;5033596;28;20120;-80
2022/06/16 00:15:10;;;;;;;9.63;4.25;;;13.60;99.90;;;;;;5033798;28;20167;-82
2022/06/16 00:17:36;;;;;;;10.25;4.82;;;13.50;99.90;;;;;;5036868;28;20060;-81
2022/06/16 00:20:04;;;;;;;6.35;4.32;;;13.50;99.90;;;;;;5040592;28;20041;-80
2022/06/16 00:22:31;;;;;;;6.53;4.25;;;13.50;99.90;;;;;;5043131;28;20107;-81
2022/06/16 00:24:56;;;;;;;10.15;5.15;;;13.50;99.90;;;;;;5042138;28;20444;-81
2022/06/16 00:27:22;;;;;;;5.30;3.88;;;13.40;99.90;;;;;;5017158;28;20049;-81
2022/06/16 00:29:47;;;;;;;6.38;3.83;;;13.40;99.90;;;;;;5032718;28;20053;-81
2022/06/16 00:32:13;;;;;;;6.53;4.45;;;13.40;99.90;;;;;;5033720;28;20049;-81
2022/06/16 00:34:39;;;;;;;8.73;4.88;;;13.40;99.90;;;;;;5035538;28;20049;-82
2022/06/16 00:37:04;;;;;;;7.22;4.55;;;13.40;99.90;;;;;;5036145;28;20072;-82
2022/06/16 00:39:30;;;;;;;6.68;4.50;;;13.40;99.90;;;;;;5034693;28;20068;-81
2022/06/16 00:41:56;;;;;;;6.90;3.72;;;13.40;99.90;;;;;;5033361;28;20079;-82
2022/06/16 00:44:24;;;;;;;7.30;3.80;;;13.50;99.90;;;;;;5032292;28;20034;-81
2022/06/16 00:46:50;;;;;;;7.28;3.75;;;13.40;99.90;;;;;;5032253;28;20041;-81
2022/06/16 00:49:15;;;;;;;7.82;3.75;;;13.40;99.90;;;;;;5015662;28;20052;-80
2022/06/16 00:51:45;;;;;;;9.77;4.25;;;13.30;99.90;;;;;;5030807;28;20056;-81
2022/06/16 00:54:29;;;;;;;6.30;4.00;;;13.30;99.90;;;;;;5033619;28;20037;-81
2022/06/16 00:57:01;;;;;;;9.07;4.30;;;13.30;99.90;;;;;;5032849;28;20037;-81
2022/06/16 00:59:27;;;;;;;7.80;3.95;;;13.30;99.90;;;;;;5032210;28;20376;-81
2022/06/16 01:01:53;;;;;;;7.68;4.03;;;13.30;99.90;;;;;;5032370;28;20037;-81
2022/06/16 01:07:09;;;;;;;8.05;4.18;;;13.30;99.90;;;;;;5033023;28;20054;-81
2022/06/16 01:09:35;;;;;;;7.72;4.22;;;13.30;99.90;;;;;;5031971;28;20045;-80
2022/06/16 01:15:38;;;;;;;6.57;3.83;;;13.30;99.90;;;;;;5031766;28;20045;-81
2022/06/16 01:18:06;;;;;;;6.25;4.30;;;13.20;99.90;;;;;;5032130;28;20132;-81
2022/06/16 01:20:40;;;;;;;6.78;3.95;;;13.20;99.90;;;;;;5031901;28;20521;-81
2022/06/16 01:23:25;;;;;;;9.00;4.20;;;13.10;99.90;;;;;;5032889;28;20045;-81
2022/06/16 01:26:21;;;;;;;6.45;3.90;;;13.10;99.90;;;;;;5032918;28;20045;-80
2022/06/16 01:29:08;;;;;;;6.93;4.70;;;13.10;99.90;;;;;;5017008;28;20045;-81
2022/06/16 01:31:56;;;;;;;9.25;4.07;;;13.00;99.90;;;;;;5033047;28;20041;-81
2022/06/16 01:34:46;;;;;;;8.52;4.43;;;12.90;99.90;;;;;;5033955;28;20096;-81
2022/06/16 01:37:19;;;;;;;5.18;3.50;;;12.80;99.90;;;;;;5015251;28;20038;-82
2022/06/16 01:40:08;;;;;;;7.95;5.05;;;12.80;99.90;;;;;;5043702;28;20029;-79
2022/06/16 01:42:44;;;;;;;6.63;4.53;;;12.80;99.90;;;;;;5051485;28;20037;-81
2022/06/16 01:45:19;;;;;;;7.55;4.15;;;12.60;99.90;;;;;;5028401;28;20457;-81
2022/06/16 01:47:49;;;;;;;8.10;4.75;;;12.70;99.90;;;;;;5030905;28;20041;-80
2022/06/16 01:50:21;;;;;;;8.88;4.20;;;12.70;99.90;;;;;;5030523;28;20128;-82
2022/06/16 01:52:55;;;;;;;10.85;4.47;;;12.70;99.90;;;;;;5030996;28;20051;-82
2022/06/16 01:55:27;;;;;;;9.25;4.47;;;12.70;99.90;;;;;;5031050;28;20486;-82
2022/06/16 01:58:16;;;;;;;;;;;12.70;99.90;;;;;;5031471;28;20492;-82
2022/06/16 02:00:44;;;;;;;8.73;4.90;;;12.70;99.90;;;;;;5036239;28;20396;-81
2022/06/16 02:03:21;;;;;;;8.85;4.65;;;12.70;99.90;;;;;;5030429;28;20045;-82
2022/06/16 02:05:54;;;;;;;7.78;5.70;;;12.70;99.90;;;;;;5030545;28;20042;-81
2022/06/16 02:08:25;;;;;;;10.50;4.25;;;12.60;99.90;;;;;;5030844;28;20436;-80
2022/06/16 02:11:03;;;;;;;7.93;4.53;;;12.60;99.90;;;;;;5030288;28;20092;-82
2022/06/16 02:13:34;;;;;;;8.57;4.28;;;12.60;99.90;;;;;;5030587;28;20048;-81
2022/06/16 02:16:12;;;;;;;5.75;4.40;;;12.60;99.90;;;;;;5014272;28;20041;-82
2022/06/16 02:18:40;;;;;;;5.97;4.68;;;12.60;99.90;;;;;;5030524;28;20056;-81
2022/06/16 02:21:37;;;;;;;5.65;3.90;;;12.60;99.90;;;;;;5014115;28;20064;-82
2022/06/16 02:24:06;;;;;;;10.25;4.80;;;12.50;99.90;;;;;;5030351;28;20053;-81
2022/06/16 02:26:33;;;;;;;4.85;3.88;;;12.50;99.90;;;;;;5030267;28;20041;-82
2022/06/16 02:29:01;;;;;;;6.70;4.40;;;12.50;99.90;;;;;;5030108;28;20041;-81
2022/06/16 02:31:49;;;;;;;12.35;4.82;;;12.50;99.90;;;;;;5030172;28;20037;-82
2022/06/16 02:34:22;;;;;;;8.57;4.47;;;12.50;99.90;;;;;;5013953;28;20088;-81
2022/06/16 02:36:48;;;;;;;9.43;4.43;;;12.50;99.90;;;;;;5030068;28;20037;-82
2022/06/16 02:39:41;;;;;;;7.32;4.45;;;12.40;99.90;;;;;;5030166;28;20045;-81
2022/06/16 02:42:18;;;;;;;7.95;4.35;;;12.40;99.90;;;;;;5029944;28;20041;-81
2022/06/16 02:45:00;;;;;;;9.05;4.63;;;12.40;99.90;;;;;;5029998;28;20132;-82
2022/06/16 02:48:01;;;;;;;8.70;4.47;;;12.30;99.90;;;;;;5030493;28;20443;-81
2022/06/16 02:50:33;;;;;;;9.40;4.80;;;12.30;99.90;;;;;;4999550;28;20516;-81
2022/06/16 02:53:11;;;;;;;8.82;4.70;;;12.30;99.90;;;;;;5029984;28;20049;-81
2022/06/16 02:55:47;;;;;;;7.03;4.72;;;12.20;99.90;;;;;;5013327;28;20052;-82
2022/06/16 02:58:19;;;;;;;11.63;5.70;;;12.20;99.90;;;;;;5029899;28;20409;-82
2022/06/16 03:00:49;;;;;;;10.05;4.75;;;12.10;99.90;;;;;;5029638;28;20531;-82
2022/06/16 03:03:24;;;;;;;9.25;4.15;;;12.20;99.90;;;;;;5030300;28;20049;-82
2022/06/16 03:05:52;;;;;;;6.80;3.95;;;12.20;99.90;;;;;;5029367;28;20098;-82
2022/06/16 03:08:18;;;;;;;6.45;4.25;;;12.20;99.90;;;;;;5029680;28;20042;-81
2022/06/16 03:10:53;;;;;;;6.75;3.75;;;12.20;99.90;;;;;;5029627;28;20041;-82
2022/06/16 03:13:28;;;;;;;9.60;4.18;;;12.20;99.90;;;;;;5029440;28;20057;-81
2022/06/16 03:15:56;;;;;;;9.80;4.38;;;12.20;99.90;;;;;;5029530;28;20036;-81
2022/06/16 03:18:22;;;;;;;8.02;3.83;;;12.10;99.90;;;;;;5029799;28;20048;-82
2022/06/16 03:20:48;;;;;;;8.65;5.63;;;12.10;99.90;;;;;;5029591;28;20049;-81
2022/06/16 03:23:14;;;;;;;8.55;4.82;;;12.00;99.90;;;;;;5029664;28;20047;-81
2022/06/16 03:25:41;;;;;;;6.90;4.38;;;12.00;99.90;;;;;;5029833;28;20068;-82
2022/06/16 03:28:08;;;;;;;6.05;3.70;;;11.90;99.90;;;;;;5029735;28;20052;-81
2022/06/16 03:30:35;;;;;;;7.50;3.90;;;11.80;99.90;;;;;;5029853;28;20092;-81
2022/06/16 03:33:02;;;;;;;8.95;4.18;;;11.70;99.90;;;;;;5030604;28;20554;-82
2022/06/16 03:35:28;;;;;;;8.68;4.60;;;11.80;99.90;;;;;;5014167;28;20041;-82
2022/06/16 03:37:54;;;;;;;9.18;4.03;;;11.70;99.90;;;;;;5030027;28;20060;-82
2022/06/16 03:40:20;;;;;;;8.75;4.10;;;11.80;99.90;;;;;;5029674;28;20049;-82
2022/06/16 03:42:47;;;;;;;7.95;4.32;;;11.70;99.90;;;;;;5030273;28;20046;-82
2022/06/16 03:45:13;;;;;;;9.88;4.63;;;11.80;99.90;;;;;;5013720;28;20124;-81
2022/06/16 03:47:39;;;;;;;7.15;4.25;;;11.70;99.90;;;;;;5014205;28;20523;-81
2022/06/16 03:50:06;;;;;;;7.97;5.20;;;11.70;99.90;;;;;;5030545;28;20045;-81
2022/06/16 03:52:32;;;;;;;6.70;4.40;;;11.70;99.90;;;;;;5030865;28;20052;-81
2022/06/16 03:54:57;;;;;;;6.50;4.57;;;11.70;99.90;;;;;;5030133;28;20033;-81
2022/06/16 03:57:23;;;;;;;7.20;4.57;;;11.60;99.90;;;;;;5030341;28;20148;-81
2022/06/16 03:59:48;;;;;;;9.77;4.93;;;11.70;99.90;;;;;;5030094;28;20091;-82
2022/06/16 04:02:14;;;;;;;10.00;4.78;;;11.70;99.90;;;;;;5029822;28;20049;-82
2022/06/16 04:04:39;;;;;;;8.95;4.35;;;11.80;99.90;;;;;;5029472;28;20175;-82
2022/06/16 04:07:05;;;;;;;9.90;4.85;;;11.80;99.90;;;;;;5029833;28;20520;-81
2022/06/16 04:09:31;;;;;;;8.82;4.07;;;11.90;99.90;;;;;;5029126;28;20418;-82
2022/06/16 04:11:57;;;;;;;8.38;4.38;;;12.00;99.90;;;;;;5029188;28;20041;-82
2022/06/16 04:14:23;;;;;;;7.10;4.78;;;12.00;99.90;;;;;;5029317;28;20057;-82
2022/06/16 04:16:54;;;;;;;9.20;4.38;;;12.00;99.90;;;;;;5029175;28;20037;-82
2022/06/16 04:19:21;;;;;;;5.80;3.72;;;12.10;99.90;;;;;;5029482;28;20077;-81
2022/06/16 04:21:48;;;;;;;13.05;5.28;;;12.30;99.90;;;;;;5031064;28;20563;-80
2022/06/16 04:24:15;;;;;;;8.93;4.38;;;12.30;99.90;;;;;;5014484;28;20575;-80
2022/06/16 04:26:41;;;;;;;10.60;4.80;;;12.40;99.90;;;;;;5033948;28;20045;-80
2022/06/16 04:29:10;;;;;;;6.82;4.78;;;12.60;99.90;;;;;;5033837;28;20402;-80
2022/06/16 04:31:37;;;;;;;8.77;4.80;;;12.70;99.90;;;;;;5033424;28;20033;-80
2022/06/16 04:34:03;;;;;;;7.03;3.95;;;12.80;99.90;;;;;;5016778;28;20073;-80
2022/06/16 04:36:28;;;;;;;8.05;4.03;;;12.90;99.90;;;;;;5033682;28;20496;-80
2022/06/16 04:38:55;;;;;;;7.22;4.78;;;12.90;99.90;;;;;;5017287;28;20138;-80
2022/06/16 04:41:21;;;;;;;11.48;6.85;;;13.00;99.90;;;;;;5032782;28;20047;-80
2022/06/16 04:43:47;;;;;;;14.68;7.57;;;13.10;99.90;;;;;;5016936;28;20052;-80
2022/06/16 04:46:17;;;;;;;8.35;4.80;;;13.10;99.90;;;;;;5016797;28;20033;-81
2022/06/16 04:48:43;;;;;;;11.18;4.90;;;13.30;99.90;;;;;;5033124;28;20088;-80
2022/06/16 04:51:10;;;;;;;7.90;4.43;;;13.30;99.90;;;;;;5033971;28;20077;-80
2022/06/16 04:53:36;;;;;;;6.50;5.20;;;13.40;99.90;;;;;;5018341;28;20045;-80
2022/06/16 04:56:03;;;;;;;8.57;4.55;;;13.50;99.90;;;;;;5034034;28;20033;-80
2022/06/16 04:58:29;;;;;;;7.65;3.90;;;13.60;99.90;;;;;;5014238;28;20491;-80
2022/06/16 05:00:56;;;;;;;6.28;4.35;;;13.60;99.90;;;;;;5030682;28;20042;-80
2022/06/16 05:03:27;;;;;;;10.43;5.43;;;13.70;99.90;;;;;;5032599;28;20037;-81
2022/06/16 05:05:54;;;;;;;9.45;4.80;;;13.70;99.90;;;;;;5032383;28;20037;-81
2022/06/16 05:08:21;;;;;;;9.75;5.78;;;13.70;99.90;;;;;;5033440;28;20473;-80
2022/06/16 05:10:48;;;;;;;13.02;5.50;;;13.80;99.90;;;;;;5046420;28;20097;-81
2022/06/16 05:13:15;;;;;;;9.85;5.90;;;13.90;99.90;;;;;;5034420;28;20037;-81
2022/06/16 05:15:40;;;;;;;14.30;5.88;;;13.90;99.90;;;;;;5045132;28;20045;-81
2022/06/16 05:18:08;;;;;;;10.32;5.63;;;14.00;99.90;;;;;;5015390;28;20142;-81
2022/06/16 05:20:35;;;;;;;11.65;6.00;;;14.10;99.90;;;;;;5031272;28;20046;-81
2022/06/16 05:23:01;;;;;;;9.50;5.30;;;14.20;99.90;;;;;;5015171;28;20053;-81
2022/06/16 05:25:26;;;;;;;9.20;5.63;;;14.20;99.90;;;;;;5031174;28;20398;-81
2022/06/16 05:27:52;;;;;;;12.18;6.00;;;14.30;99.90;;;;;;5031486;28;20063;-81
2022/06/16 05:30:18;;;;;;;8.32;5.32;;;14.40;99.90;;;;;;5031117;28;20412;-81
2022/06/16 05:32:44;;;;;;;9.73;5.07;;;14.40;99.90;;;;;;5031194;28;20042;-81
2022/06/16 05:35:11;;;;;;;7.68;4.32;;;14.50;99.90;;;;;;5030872;28;20080;-81
2022/06/16 05:37:37;;;;;;;7.00;4.40;;;14.60;99.90;;;;;;5014177;28;20046;-81
2022/06/16 05:40:04;;;;;;;8.25;4.53;;;14.60;99.90;;;;;;5030909;28;20056;-81
2022/06/16 05:42:29;;;;;;;7.57;4.28;;;14.70;99.90;;;;;;5031310;28;20052;-80
2022/06/16 05:44:55;;;;;;;9.93;4.18;;;14.80;99.90;;;;;;5031555;28;20041;-81
2022/06/16 05:47:20;;;;;;;7.32;3.90;;;14.90;99.90;;;;;;5030934;28;20053;-80
2022/06/16 05:49:46;;;;;;;7.72;4.13;;;15.20;99.90;;;;;;5030613;28;20477;-81
2022/06/16 05:52:15;;;;;;;7.25;4.13;;;15.70;99.90;;;;;;5031520;28;20037;-81
2022/06/16 05:54:42;;;;;;;5.88;3.45;;;16.30;99.90;;;;;;5015018;28;20111;-81
2022/06/16 05:57:08;;;;;;;15.15;4.30;;;16.80;99.90;;;;;;5014544;28;20041;-81
2022/06/16 05:59:35;;;;;;;7.53;3.70;;;17.40;99.90;;;;;;5032924;28;20045;-81
2022/06/16 06:02:02;;;;;;;12.20;3.60;;;18.00;99.90;;;;;;5031939;28;20052;-81
2022/06/16 06:04:28;;;;;;;9.02;3.30;;;18.70;99.90;;;;;;5031320;28;20527;-81
2022/06/16 06:06:54;;;;;;;4.28;2.50;;;19.30;99.90;;;;;;5015319;28;20042;-81
2022/06/16 06:17:36;;;;;;;6.50;3.28;;;19.00;99.90;;;;;;5032026;28;20523;-80
2022/06/16 06:20:02;;;;;;;3.80;2.75;;;19.40;99.90;;;;;;5031622;28;20034;-81
2022/06/16 06:22:28;;;;;;;5.28;2.88;;;19.90;99.90;;;;;;5032578;28;20057;-81
2022/06/16 06:24:58;;;;;;;4.30;2.83;;;20.60;99.90;;;;;;5014805;28;20041;-81
2022/06/16 06:27:38;;;;;;;4.50;2.95;;;20.90;99.90;;;;;;5031860;28;20037;-81
2022/06/16 06:30:14;;;;;;;7.45;2.35;;;21.30;99.90;;;;;;5031536;28;20080;-81
2022/06/16 06:32:40;;;;;;;3.05;2.20;;;21.60;99.90;;;;;;5014949;28;20121;-81
2022/06/16 06:35:06;;;;;;;4.22;1.77;;;22.00;99.90;;;;;;5030515;28;20459;-81
2022/06/16 06:37:32;;;;;;;6.05;2.03;;;22.10;99.90;;;;;;5030586;28;20111;-80
2022/06/16 06:39:58;;;;;;;5.00;2.08;;;22.20;99.90;;;;;;5029710;28;20501;-80
2022/06/16 06:42:24;;;;;;;6.35;2.58;;;22.30;99.90;;;;;;5030089;28;20064;-81
2022/06/16 06:44:50;;;;;;;5.43;2.22;;;22.70;99.90;;;;;;5029909;28;20429;-80
2022/06/16 06:47:20;;;;;;;4.47;2.30;;;22.80;99.90;;;;;;5030189;28;20049;-81
2022/06/16 06:49:46;;;;;;;3.08;2.10;;;22.90;99.90;;;;;;5028881;28;20049;-81
2022/06/16 06:52:12;;;;;;;4.35;2.22;;;22.90;99.90;;;;;;5030107;28;20081;-81
2022/06/16 06:54:37;;;;;;;9.20;2.00;;;22.90;99.90;;;;;;5030196;28;20076;-81
2022/06/16 06:57:03;;;;;;;4.18;1.73;;;23.10;99.70;;;;;;5013477;28;20068;-80
2022/06/16 06:59:29;;;;;;;4.30;1.35;;;23.30;98.20;;;;;;5013197;28;20095;-81
2022/06/16 07:01:54;;;;;;;3.45;1.23;;;23.20;97.60;;;;;;5029988;28;20435;-80
2022/06/16 07:04:21;;;;;;;4.57;1.35;;;23.20;96.00;;;;;;5013099;28;20041;-81
2022/06/16 07:06:47;;;;;;;4.80;1.23;;;23.40;93.70;;;;;;5013506;28;20038;-81
2022/06/16 07:09:16;;;;;;;1.50;1.10;;;23.50;93.20;;;;;;5013529;28;20516;-80
2022/06/16 07:11:43;;;;;;;1.95;0.98;;;23.50;90.30;;;;;;5030774;28;20095;-80
2022/06/16 07:14:09;;;;;;;3.25;0.90;;;23.60;91.40;;;;;;5030890;28;20111;-79
2022/06/16 07:16:35;;;;;;;2.88;0.90;;;23.70;90.20;;;;;;5029802;28;20461;-80
2022/06/16 07:19:01;;;;;;;2.22;0.70;;;23.60;88.80;;;;;;5029940;28;20080;-80
2022/06/16 07:21:27;;;;;;;2.95;0.70;;;23.70;87.20;;;;;;5031170;28;20045;-81
2022/06/16 07:23:54;;;;;;;3.08;0.80;;;23.80;86.90;;;;;;5013338;28;20202;-80
2022/06/16 07:26:20;;;;;;;2.97;0.65;;;23.90;86.10;;;;;;5030042;28;20389;-79
2022/06/16 07:29:22;;;;;;;1.45;0.80;;;24.20;82.90;;;;;;5035124;28;20099;-80
2022/06/16 07:31:48;;;;;;;2.95;0.90;;;24.20;77.80;;;;;;5029837;28;20056;-79
2022/06/16 07:34:15;;;;;;;4.18;0.77;;;24.20;82.70;;;;;;5031376;28;20042;-81
2022/06/16 07:36:41;;;;;;;4.50;0.80;;;24.20;78.80;;;;;;5030494;28;20049;-82
2022/06/16 07:39:07;;;;;;;2.60;0.80;;;24.40;74.70;;;;;;5030215;28;20487;-81
2022/06/16 07:41:36;;;;;;;3.58;0.85;;;24.40;73.20;;;;;;5030456;28;20128;-81
2022/06/16 07:44:13;;;;;;;1.35;0.70;;;24.40;72.40;;;;;;5030707;28;20627;-81
2022/06/16 07:46:42;;;;;;;1.65;0.98;;;24.30;66.90;;;;;;5031470;28;20423;-82
2022/06/16 07:49:13;;;;;;;5.78;0.70;;;24.30;68.20;;;;;;5030739;28;20160;-82
2022/06/16 07:51:42;;;;;;;4.30;0.95;;;24.20;68.80;;;;;;5030127;28;20136;-81
2022/06/16 07:54:10;;;;;;;4.43;0.77;;;24.30;69.70;;;;;;5014306;28;20116;-82
2022/06/16 07:56:36;;;;;;;1.65;0.60;;;24.50;68.60;;;;;;5030116;28;20546;-81
2022/06/16 07:59:02;;;;;;;2.67;1.10;;;24.60;66.40;;;;;;5030610;28;20051;-81
2022/06/16 08:01:28;;;;;;;2.40;0.80;;;24.60;66.00;;;;;;5032745;28;20128;-81
2022/06/16 08:03:54;;;;;;;1.23;0.75;;;24.70;65.30;;;;;;5035440;28;20512;-81
2022/06/16 08:06:26;;;;;;;2.80;1.10;;;24.70;66.20;;;;;;5034128;28;20041;-81
2022/06/16 08:08:52;;;;;;;2.95;0.93;;;24.70;65.40;;;;;;5033758;28;20271;-80
2022/06/16 08:14:02;;;;;;;2.97;1.10;;;24.70;63.40;;;;;;5034633;28;20137;-80
2022/06/16 08:16:33;;;;;;;2.63;0.95;;;24.70;64.20;;;;;;5035222;28;20076;-80
2022/06/16 08:19:01;;;;;;;3.58;1.25;;;24.60;63.90;;;;;;5018126;28;20038;-81
2022/06/16 08:21:27;;;;;;;2.63;0.90;;;24.50;64.50;;;;;;5033518;28;20046;-80
2022/06/16 08:23:53;;;;;;;3.58;1.42;;;24.50;64.50;;;;;;5033888;28;20099;-81
2022/06/16 08:26:20;;;;;;;3.58;1.23;;;24.70;63.60;;;;;;5034952;28;20412;-81
2022/06/16 08:28:47;;;;;;;1.92;1.08;;;24.60;62.90;;;;;;5033620;28;20064;-81
2022/06/16 08:31:13;;;;;;;5.43;1.27;;;24.60;63.30;;;;;;5034138;28;20038;-80
2022/06/16 08:33:40;;;;;;;4.93;1.67;;;24.70;62.70;;;;;;5018066;28;20041;-81
2022/06/16 08:36:09;;;;;;;5.40;1.20;;;24.80;62.10;;;;;;5018088;28;20452;-79
2022/06/16 08:38:35;;;;;;;3.33;1.55;;;24.80;60.30;;;;;;5034623;28;20038;-80
2022/06/16 08:41:11;;;;;;;3.33;1.45;;;24.70;60.90;;;;;;5020391;28;20044;-80
2022/06/16 08:43:49;;;;;;;3.53;1.58;;;24.60;60.50;;;;;;5034283;28;20037;-82
2022/06/16 08:46:17;;;;;;;2.58;1.15;;;24.50;60.10;;;;;;5018924;28;20057;-81
2022/06/16 08:49:08;;;;;;;2.75;1.25;;;24.20;60.40;;;;;;5021089;28;20049;-80
2022/06/16 08:52:04;;;;;;;2.72;1.17;;;24.20;61.10;;;;;;5037005;28;20120;-80
2022/06/16 08:54:35;;;;;;;1.80;1.40;;;24.30;62.20;;;;;;5020222;28;20091;-80
2022/06/16 08:57:24;;;;;;;2.88;1.70;;;24.40;62.80;;;;;;5019396;28;20164;-79
2022/06/16 09:00:02;;;;;;;2.22;1.33;;;24.40;61.20;;;;;;5019867;28;20046;-81
2022/06/16 09:02:49;;;;;;;2.90;1.45;;;24.20;63.20;;;;;;5038080;28;20029;-80
2022/06/16 09:05:51;;;;;;;6.38;1.80;;;24.30;62.50;;;;;;5019953;28;20037;-79
2022/06/16 09:08:53;;;;;;;6.05;1.45;;;24.50;61.50;;;;;;5046835;28;20038;-80
2022/06/16 09:11:49;;;;;;;5.28;1.58;;;24.60;60.50;;;;;;5037685;28;20105;-81
2022/06/16 09:17:35;;;;;;;3.53;1.70;;;24.70;60.70;;;;;;5037362;28;20068;-80
2022/06/16 09:20:04;;;;;;;3.05;1.60;;;24.70;61.30;;;;;;5035113;28;20044;-80
2022/06/16 09:23:05;;;;;;;4.57;1.48;;;24.90;60.60;;;;;;5033158;28;20042;-80
2022/06/16 09:26:04;;;;;;;2.87;1.47;;;25.10;59.60;;;;;;5018004;28;20041;-80
2022/06/16 09:28:53;;;;;;;3.55;1.52;;;25.20;58.80;;;;;;5016441;28;20033;-80
2022/06/16 09:31:26;;;;;;;1.63;1.30;;;25.30;59.70;;;;;;5032716;28;20054;-80
2022/06/16 09:34:01;;;;;;;3.35;1.80;;;25.40;59.30;;;;;;5037152;28;20095;-79
2022/06/16 09:36:32;;;;;;;4.80;1.70;;;25.40;59.40;;;;;;5019447;28;20045;-81
2022/06/16 09:39:05;;;;;;;3.33;1.38;;;25.30;58.30;;;;;;5018197;28;20045;-81
2022/06/16 09:44:32;;;;;;;4.70;1.67;;;25.50;57.70;;;;;;5032944;28;20108;-81
2022/06/16 09:47:04;;;;;;;4.10;1.70;;;25.40;59.30;;;;;;5033591;28;20044;-80
2022/06/16 09:49:50;;;;;;;3.63;1.90;;;25.50;59.80;;;;;;5016999;28;20049;-81
2022/06/16 09:52:22;;;;;;;6.43;2.40;;;25.70;58.50;;;;;;5019884;28;20045;-80
2022/06/16 09:54:55;;;;;;;3.67;2.17;;;25.70;57.50;;;;;;5035972;28;20033;-81
2022/06/16 09:57:36;;;;;;;5.47;2.40;;;25.70;59.40;;;;;;5034223;28;20045;-81
2022/06/16 10:00:09;;;;;;;4.68;2.22;;;25.70;58.60;;;;;;5035314;28;20044;-80
2022/06/16 10:02:48;;;;;;;3.53;2.50;;;25.70;58.30;;;;;;5035581;28;20037;-81
2022/06/16 10:05:40;;;;;;;4.18;2.13;;;26.00;59.10;;;;;;5018310;28;20568;-80
2022/06/16 10:08:26;;;;;;;5.07;2.25;;;25.90;56.60;;;;;;5019050;28;20033;-80
2022/06/16 10:11:17;;;;;;;5.32;2.22;;;26.00;56.90;;;;;;5018198;28;20029;-80
2022/06/16 10:14:00;;;;;;;3.90;2.15;;;25.90;56.50;;;;;;5034795;28;20053;-80
2022/06/16 10:16:46;;;;;;;2.20;1.50;;;26.10;56.40;;;;;;5038627;28;20042;-80
2022/06/16 10:19:15;;;;;;;5.93;1.75;;;26.20;56.20;;;;;;5019333;28;20400;-81
2022/06/16 10:21:44;;;;;;;4.07;2.05;;;26.20;56.40;;;;;;5016474;28;20034;-80
2022/06/16 10:24:32;;;;;;;4.28;2.00;;;26.30;55.50;;;;;;5017516;28;20045;-80
2022/06/16 10:27:08;;;;;;;3.80;1.98;;;26.40;54.90;;;;;;5033686;28;20504;-80
2022/06/16 10:29:35;;;;;;;4.25;2.08;;;26.30;55.40;;;;;;5017186;28;20049;-80
2022/06/16 10:32:03;;;;;;;6.43;2.08;;;26.20;56.10;;;;;;5018007;28;20037;-81
2022/06/16 10:34:41;;;;;;;5.65;2.33;;;26.10;57.10;;;;;;5018456;28;20049;-81
2022/06/16 10:37:16;;;;;;;6.07;2.50;;;26.20;56.40;;;;;;5017381;28;20041;-81
2022/06/16 10:40:03;;;;;;;5.05;2.88;;;26.00;56.30;;;;;;5019332;28;20041;-79
2022/06/16 10:42:59;;;;;;;5.18;1.95;;;25.90;56.30;;;;;;5018262;28;20465;-80
2022/06/16 10:45:29;;;;;;;4.88;2.30;;;26.00;56.60;;;;;;5021401;28;20067;-80
2022/06/16 10:48:00;;;;;;;2.95;2.15;;;26.00;57.10;;;;;;5020352;28;20129;-80
2022/06/16 10:50:47;;;;;;;;;;;26.00;57.00;;;;;;5019913;28;20037;-80
2022/06/16 10:53:33;;;;;;;4.53;2.20;;;25.70;58.00;;;;;;5021629;28;19928;-79
2022/06/16 10:56:16;;;;;;;3.15;2.20;;;25.60;57.10;;;;;;5036034;28;20398;-77
2022/06/16 10:59:19;;;;;;;3.55;2.00;;;25.60;57.80;;;;;;5034328;28;20119;-79
2022/06/16 11:01:58;;;;;;;3.92;2.45;;;25.60;57.60;;;;;;5015658;28;20396;-80
2022/06/16 11:04:49;;;;;;;3.17;2.20;;;25.60;57.80;;;;;;5016733;28;20072;-80
2022/06/16 11:07:19;;;;;;;5.18;2.45;;;25.80;57.90;;;;;;5017410;28;20029;-79
2022/06/16 11:09:58;;;;;;;;;;;;;;;;;;;;;
2022/06/16 11:12:39;;;;;;;3.72;2.15;;;26.10;56.70;;;;;;5031167;28;20523;-80
2022/06/16 11:15:22;;;;;;;4.57;2.10;;;26.40;57.00;;;;;;5016333;28;20046;-80
2022/06/16 11:18:00;;;;;;;5.90;2.33;;;26.30;58.50;;;;;;5015930;28;20041;-80
2022/06/16 11:21:07;;;;;;;6.22;2.45;;;26.00;55.40;;;;;;5016629;28;20132;-80
2022/06/16 11:23:48;;;;;;;4.35;1.95;;;25.60;56.40;;;;;;5010890;28;20049;-81
2022/06/16 11:26:30;;;;;;;3.90;2.40;;;25.30;57.70;;;;;;5016303;28;20126;-79
2022/06/16 11:29:11;;;;;;;5.70;2.50;;;25.40;57.90;;;;;;5016270;28;20045;-80
2022/06/16 11:31:47;;;;;;;4.13;2.22;;;25.40;57.50;;;;;;5029827;28;20080;-81
2022/06/16 11:34:24;;;;;;;3.63;2.30;;;25.30;56.90;;;;;;5013857;28;20097;-81
2022/06/16 11:37:28;;;;;;;5.38;1.95;;;25.20;57.00;;;;;;5018024;28;20045;-81
2022/06/16 11:40:10;;;;;;;4.75;2.20;;;25.30;59.40;;;;;;5014589;28;20089;-81
2022/06/16 11:42:59;;;;;;;;;;;25.50;57.80;;;;;;5035597;28;20053;-81
2022/06/16 11:45:40;;;;;;;4.60;2.33;;;25.60;58.90;;;;;;5017545;28;19967;-81
2022/06/16 11:48:17;;;;;;;3.60;2.20;;;25.70;57.40;;;;;;5017254;28;20084;-80
2022/06/16 11:51:04;;;;;;;6.30;2.22;;;25.90;56.90;;;;;;5033692;28;20554;-80
2022/06/16 11:53:54;;;;;;;7.00;2.75;;;26.00;55.70;;;;;;5018705;28;20104;-81
2022/06/16 11:56:35;;;;;;;5.13;2.40;;;26.00;56.10;;;;;;5035516;28;20056;-81
2022/06/16 11:59:41;;;;;;;4.20;2.22;;;25.70;55.50;;;;;;5018005;28;20049;-81
2022/06/16 12:02:41;;;;;;;5.50;2.53;;;25.70;56.10;;;;;;5016949;28;20067;-80
2022/06/16 12:05:18;;;;;;;3.15;2.22;;;25.90;57.40;;;;;;5034731;28;20045;-81
2022/06/16 12:07:46;;;;;;;4.18;2.15;;;26.20;55.80;;;;;;5035034;28;20040;-80
2022/06/16 12:10:33;;;;;;;5.40;2.55;;;26.30;56.00;;;;;;5033308;28;20047;-82
2022/06/16 12:13:18;;;;;;;3.88;2.40;;;26.40;55.70;;;;;;5032873;28;20088;-81
2022/06/16 12:16:02;;;;;;;6.13;2.47;;;26.80;55.70;;;;;;5028797;28;20048;-81
2022/06/16 12:18:31;;;;;;;4.70;2.97;;;26.90;54.30;;;;;;5015562;28;20050;-81
2022/06/16 12:21:13;;;;;;;4.72;2.28;;;26.90;54.10;;;;;;5007989;28;20092;-80
2022/06/16 12:24:17;;;;;;;4.93;2.58;;;27.00;54.90;;;;;;5026436;28;20045;-80
2022/06/16 12:27:06;;;;;;;6.65;2.10;;;27.00;55.40;;;;;;5000398;28;20049;-79
2022/06/16 12:29:57;;;;;;;2.88;2.05;;;27.00;55.20;;;;;;5033098;28;20437;-81
2022/06/16 12:32:25;;;;;;;6.65;2.17;;;27.00;55.00;;;;;;5033584;28;20408;-80
2022/06/16 12:35:22;;;;;;;5.63;2.35;;;27.10;55.40;;;;;;5034472;28;20037;-79
2022/06/16 12:37:53;;;;;;;5.50;2.20;;;27.30;55.80;;;;;;5033437;28;20041;-80
2022/06/16 12:40:22;;;;;;;4.20;2.10;;;27.50;55.90;;;;;;5034736;28;20049;-80
2022/06/16 12:42:54;;;;;;;4.97;2.08;;;27.60;54.70;;;;;;5034204;28;20037;-80
2022/06/16 12:45:40;;;;;;;4.22;2.22;;;27.70;53.90;;;;;;5033953;28;20041;-80
2022/06/16 12:48:14;;;;;;;6.22;1.90;;;27.80;53.10;;;;;;5032816;28;20440;-80
2022/06/16 12:50:49;;;;;;;5.03;2.10;;;27.70;54.40;;;;;;5016098;28;20037;-80
2022/06/16 12:53:28;;;;;;;6.50;2.50;;;27.40;54.60;;;;;;5017338;28;20043;-79
2022/06/16 12:56:05;;;;;;;4.63;2.28;;;27.10;52.20;;;;;;5034860;28;20534;-80
2022/06/16 12:58:45;;;;;;;4.70;2.78;;;26.70;54.00;;;;;;5033301;28;20041;-80
2022/06/16 13:01:13;;;;;;;4.75;2.40;;;26.50;54.50;;;;;;5032657;28;20045;-78
2022/06/16 13:03:58;;;;;;;2.97;2.28;;;26.60;55.70;;;;;;5033877;28;20546;-81
2022/06/16 13:06:25;;;;;;;4.45;2.40;;;26.60;53.80;;;;;;5033923;28;20088;-81
2022/06/16 13:08:56;;;;;;;5.95;2.53;;;26.60;53.90;;;;;;5032406;28;20088;-80
2022/06/16 13:11:27;;;;;;;3.60;2.33;;;26.30;53.80;;;;;;5033856;28;20048;-80
2022/06/16 13:14:03;;;;;;;4.47;2.20;;;26.00;53.90;;;;;;5032825;28;20445;-80
2022/06/16 13:16:32;;;;;;;5.55;2.30;;;25.80;55.20;;;;;;5018768;28;20310;-82
2022/06/16 13:19:14;;;;;;;5.95;2.40;;;25.80;54.90;;;;;;5022779;28;20045;-80
2022/06/16 13:21:47;;;;;;;5.28;2.40;;;25.80;54.60;;;;;;5020411;28;20522;-81
2022/06/16 13:24:23;;;;;;;2.65;2.10;;;25.90;54.40;;;;;;5035301;28;20053;-81
2022/06/16 13:27:34;;;;;;;3.80;2.25;;;26.20;54.80;;;;;;5036439;28;20099;-80
2022/06/16 13:30:10;;;;;;;4.33;2.40;;;26.40;55.10;;;;;;5035131;28;20056;-80
2022/06/16 13:32:48;;;;;;;3.40;2.45;;;26.60;54.30;;;;;;5018704;28;20059;-80
2022/06/16 13:35:14;;;;;;;3.30;2.22;;;26.80;54.30;;;;;;5036372;28;20143;-81
2022/06/16 13:37:42;;;;;;;2.40;2.20;;;26.90;54.20;;;;;;5049994;28;20501;-79
2022/06/16 13:40:08;;;;;;;6.07;2.65;;;26.90;53.30;;;;;;5033930;28;20041;-81
2022/06/16 13:43:06;;;;;;;8.60;2.40;;;26.90;53.90;;;;;;5034064;28;20048;-81